Iles-de-la-Madeleine, Canada
Current Conditions -  °F | °C
As of 3:00 PM on Monday 20 Oct 2014 (Local Time) from CYGR Reporting Station
Rain Showers Rain Showers  
Wind Chill: 32°   Ceiling: 2000
Heat Index: 43°   Visibility: 15mi
Dew Point: 37°   Wind: 32mph
Humidity: 81%   Direction: 270°W
Pressure: 29.58"   Gusts: 45mph
Location:  47.42°N, 61.77°W
Report Text: CYGR 201800Z 27028G39KT 15SM -SHRA BKN020 06/03 A2958 RMK CU7 SLP018
Loading
Personal Weather Stations






























Interactive Weather Map New forecast layout! Learn more

10-Day Weather Forecast

Advertisements
Track Severe Weather on mobile